Portada
METAR-TAF:

METAR-TAF

Aeroports :

Kanoya, Japó

latitud: 31-22N, longitud: 130-50E, altitud: 65 m

Observació

L'informe es va fer fa 8 hores i 16 minuts, a les 00:35 UTC
Vent 18 kt del Est/Nord-Est amb ràfegues de 29 kt
Temperatura 12°C
Humitat 58%
Pressió 1020 hPa
Visibilitat 10 km o més
Escasses núvols a una alçada de 2500 ft
Núvols disperses a una alçada de 4000 ft
Cel ennuvolat a una alçada de 14000 ft

METAR: RJFY 270035Z 06018G29KT 9999 FEW025 SCT040 BKN140 12/04 Q1020 RMK 1CU025 3SC040 6AC140 A3013

Hora: 17:51 (08:51 UTC)


TAF: manca

Observacions i pronòstics meteorològics de més de 4000 aeroports (METAR i TAF).

Les estacions disponibles són els punts grocs i vermells al mapa.

Posi el ratolí al punt desitjat per veure el nom de l'estació.

Feu clic per veure les observacions i els pronòstics meteorològics.

Per canviar el mapa: feu clic els botons verds amb una creu de color negre per apropar; al botó verd amb un guió per allunyar la imatge; o en les fletxes verdes per a mapes adjacents.


METAR-TAF: